Time;durP1;ratioP1;P1;durP2;ratioP2;P2;SDS_P1;SDS_P2;PMS_P1;PMS_P2;Temp;Humidity;BMP_temperature;BMP_pressure;BME280_temperature;BME280_humidity;BME280_pressure;Samples;Min_cycle;Max_cycle;Signal;HPM_P1;HPM_P2
2022/01/31 00:00:20;;;;;;;16.92;4.68;;;;;;;;;;6186381;23;20036;-74
2022/01/31 00:02:47;;;;;;;27.90;6.30;;;;;;;;;;6221815;23;20430;-73
2022/01/31 00:05:14;;;;;;;24.30;5.97;;;;;;;;;;6223292;23;20004;-74
2022/01/31 00:07:40;;;;;;;24.83;4.95;;;;;;;;;;6223313;23;20357;-73
2022/01/31 00:10:09;;;;;;;23.23;4.85;;;;;;;;;;6222471;23;19992;-73
2022/01/31 00:12:47;;;;;;;20.23;5.25;;;;;;;;;;6223229;23;20364;-73
2022/01/31 00:15:13;;;;;;;22.15;4.38;;;;;;;;;;6223203;23;20362;-73
2022/01/31 00:17:39;;;;;;;30.30;5.90;;;;;;;;;;6220203;23;20077;-73
2022/01/31 00:20:06;;;;;;;22.40;6.18;;;;;;;;;;6223607;23;20005;-73
2022/01/31 00:22:32;;;;;;;21.70;5.38;;;;;;;;;;6211619;23;20310;-73
2022/01/31 00:24:58;;;;;;;21.33;4.70;;;;;;;;;;6223506;23;20325;-74
2022/01/31 00:27:24;;;;;;;22.80;4.13;;;;;;;;;;6222023;23;20016;-73
2022/01/31 00:29:50;;;;;;;26.17;6.22;;;;;;;;;;6223502;23;19997;-73
2022/01/31 00:32:16;;;;;;;28.75;5.55;;;;;;;;;;6211657;23;20001;-73
2022/01/31 00:34:42;;;;;;;18.65;4.78;;;;;;;;;;6223618;23;20004;-73
2022/01/31 00:37:08;;;;;;;21.75;5.90;;;;;;;;;;6223056;23;20043;-73
2022/01/31 00:39:36;;;;;;;24.83;5.60;;;;;;;;;;6223574;23;19997;-73
2022/01/31 00:42:04;;;;;;;34.75;6.45;;;;;;;;;;6222796;23;19996;-74
2022/01/31 00:44:50;;;;;;;29.00;6.05;;;;;;;;;;6223443;23;19997;-73
2022/01/31 00:47:25;;;;;;;27.40;6.78;;;;;;;;;;6212185;23;20430;-73
2022/01/31 00:49:54;;;;;;;31.60;7.53;;;;;;;;;;6222611;23;20001;-72
2022/01/31 00:52:20;;;;;;;30.40;9.10;;;;;;;;;;6222644;23;20020;-72
2022/01/31 00:54:47;;;;;;;30.58;7.78;;;;;;;;;;6186823;23;20088;-72
2022/01/31 00:57:13;;;;;;;24.98;8.00;;;;;;;;;;6222851;23;20426;-73
2022/01/31 00:59:39;;;;;;;22.65;6.93;;;;;;;;;;6222988;23;20058;-72
2022/01/31 01:02:05;;;;;;;31.15;7.47;;;;;;;;;;6211223;23;20012;-73
2022/01/31 01:04:31;;;;;;;27.27;6.95;;;;;;;;;;6222865;23;20075;-73
2022/01/31 01:06:57;;;;;;;34.83;9.40;;;;;;;;;;6222872;23;20372;-72
2022/01/31 01:09:23;;;;;;;29.00;8.05;;;;;;;;;;6220629;23;20001;-73
2022/01/31 01:11:49;;;;;;;29.58;7.93;;;;;;;;;;6221945;23;20000;-73
2022/01/31 01:14:15;;;;;;;29.30;9.13;;;;;;;;;;6222915;23;20429;-73
2022/01/31 01:16:41;;;;;;;24.38;8.82;;;;;;;;;;6220832;23;20008;-73
2022/01/31 01:19:07;;;;;;;32.28;9.13;;;;;;;;;;6223624;23;19997;-73
2022/01/31 01:21:33;;;;;;;31.63;11.00;;;;;;;;;;6222370;23;20426;-73
2022/01/31 01:23:59;;;;;;;27.80;9.88;;;;;;;;;;6221128;23;20001;-73
2022/01/31 01:26:26;;;;;;;42.40;10.90;;;;;;;;;;6222114;23;20005;-74
2022/01/31 01:28:52;;;;;;;39.88;10.52;;;;;;;;;;6222644;23;20012;-73
2022/01/31 01:31:18;;;;;;;29.00;10.07;;;;;;;;;;6223193;23;20021;-73
2022/01/31 01:33:44;;;;;;;27.42;10.45;;;;;;;;;;6211027;23;20005;-73
2022/01/31 01:36:11;;;;;;;23.58;10.63;;;;;;;;;;6222811;23;20095;-72
2022/01/31 01:38:37;;;;;;;19.23;8.63;;;;;;;;;;6223634;23;20005;-73
2022/01/31 01:41:03;;;;;;;24.50;9.80;;;;;;;;;;6212196;23;20001;-72
2022/01/31 01:43:30;;;;;;;15.45;6.20;;;;;;;;;;6222722;23;19992;-72
2022/01/31 01:45:56;;;;;;;16.60;7.32;;;;;;;;;;6222250;23;20102;-72
2022/01/31 01:48:23;;;;;;;13.23;7.30;;;;;;;;;;6222443;23;20043;-72
2022/01/31 01:50:50;;;;;;;18.33;7.40;;;;;;;;;;6223181;23;19997;-72
2022/01/31 01:53:16;;;;;;;19.40;7.18;;;;;;;;;;6222934;23;19999;-72
2022/01/31 01:55:46;;;;;;;15.63;7.40;;;;;;;;;;6222090;23;20031;-72
2022/01/31 01:58:16;;;;;;;13.55;7.57;;;;;;;;;;6213092;23;20032;-72
2022/01/31 02:00:58;;;;;;;15.52;7.28;;;;;;;;;;6223044;23;19997;-72
2022/01/31 02:03:24;;;;;;;;;;;;;;;;;;6222984;23;20005;-72
2022/01/31 02:05:50;;;;;;;16.25;7.15;;;;;;;;;;6223459;23;20416;-72
2022/01/31 02:08:18;;;;;;;18.77;8.05;;;;;;;;;;6224375;23;19996;-72
2022/01/31 02:10:44;;;;;;;17.42;8.43;;;;;;;;;;6224801;23;20062;-73
2022/01/31 02:13:11;;;;;;;22.17;7.68;;;;;;;;;;6224530;23;20008;-72
2022/01/31 02:15:38;;;;;;;21.98;9.15;;;;;;;;;;6224348;23;20004;-73
2022/01/31 02:18:05;;;;;;;14.95;7.20;;;;;;;;;;6224342;23;20011;-72
2022/01/31 02:20:33;;;;;;;18.80;6.93;;;;;;;;;;6224191;23;20004;-73
2022/01/31 02:23:01;;;;;;;17.77;7.43;;;;;;;;;;6224147;23;20000;-73
2022/01/31 02:25:27;;;;;;;15.10;6.50;;;;;;;;;;6224640;23;20000;-73
2022/01/31 02:27:53;;;;;;;14.50;6.05;;;;;;;;;;6212333;23;20016;-74
2022/01/31 02:30:19;;;;;;;58.17;24.70;;;;;;;;;;6222466;23;20016;-75
2022/01/31 02:32:46;;;;;;;20.95;6.45;;;;;;;;;;6223986;23;20001;-73
2022/01/31 02:35:12;;;;;;;18.63;6.25;;;;;;;;;;6212932;23;20008;-72
2022/01/31 02:37:39;;;;;;;23.75;6.40;;;;;;;;;;6222768;23;19997;-73
2022/01/31 02:40:05;;;;;;;16.92;5.75;;;;;;;;;;6223340;23;20001;-73
2022/01/31 02:42:31;;;;;;;14.93;5.65;;;;;;;;;;6224087;23;19999;-73
2022/01/31 02:44:58;;;;;;;13.88;5.78;;;;;;;;;;6223792;23;20374;-73
2022/01/31 02:47:27;;;;;;;17.98;5.90;;;;;;;;;;6223556;23;19999;-73
2022/01/31 02:49:57;;;;;;;20.63;6.15;;;;;;;;;;6222057;23;20506;-73
2022/01/31 02:52:26;;;;;;;18.67;5.43;;;;;;;;;;6222575;23;19997;-73
2022/01/31 02:54:52;;;;;;;23.08;5.82;;;;;;;;;;6223933;23;20020;-74
2022/01/31 02:57:18;;;;;;;18.17;4.88;;;;;;;;;;6224151;23;20008;-75
2022/01/31 02:59:45;;;;;;;31.52;6.03;;;;;;;;;;6224487;23;20321;-73
2022/01/31 03:02:11;;;;;;;33.40;4.18;;;;;;;;;;6212383;23;20005;-74
2022/01/31 03:04:37;;;;;;;30.30;5.93;;;;;;;;;;6224200;23;20005;-74
2022/01/31 03:07:03;;;;;;;30.13;4.75;;;;;;;;;;6223827;23;20024;-74
2022/01/31 03:09:29;;;;;;;38.03;7.40;;;;;;;;;;6224940;23;20003;-74
2022/01/31 03:11:55;;;;;;;30.30;4.93;;;;;;;;;;6223698;23;19997;-74
2022/01/31 03:14:21;;;;;;;39.90;6.60;;;;;;;;;;6223862;23;20028;-75
2022/01/31 03:16:47;;;;;;;31.95;4.93;;;;;;;;;;6224128;23;20083;-75
2022/01/31 03:19:14;;;;;;;40.83;7.68;;;;;;;;;;6223290;23;20391;-74
2022/01/31 03:21:41;;;;;;;39.17;5.15;;;;;;;;;;6223213;23;20123;-74
2022/01/31 03:24:07;;;;;;;29.67;5.88;;;;;;;;;;6212536;23;20004;-75
2022/01/31 03:26:33;;;;;;;31.48;5.43;;;;;;;;;;6212847;23;20603;-74
2022/01/31 03:28:59;;;;;;;35.30;6.63;;;;;;;;;;6211965;23;20041;-74
2022/01/31 03:31:25;;;;;;;37.03;5.07;;;;;;;;;;6223640;23;19996;-74
2022/01/31 03:33:52;;;;;;;30.27;4.90;;;;;;;;;;6223660;23;20075;-74
2022/01/31 03:36:18;;;;;;;27.15;4.20;;;;;;;;;;6223605;23;20008;-73
2022/01/31 03:38:46;;;;;;;41.55;5.72;;;;;;;;;;6213284;23;20020;-73
2022/01/31 03:41:12;;;;;;;29.67;5.35;;;;;;;;;;6224123;23;20077;-74
2022/01/31 03:43:39;;;;;;;29.63;4.47;;;;;;;;;;6211770;23;20008;-74
2022/01/31 03:46:05;;;;;;;35.78;4.32;;;;;;;;;;6223614;23;20003;-74
2022/01/31 03:48:31;;;;;;;25.02;3.33;;;;;;;;;;6214200;23;20344;-73
2022/01/31 03:50:58;;;;;;;25.80;4.60;;;;;;;;;;6223068;23;20000;-73
2022/01/31 03:53:24;;;;;;;34.42;3.80;;;;;;;;;;6212410;23;20055;-73
2022/01/31 03:55:50;;;;;;;31.58;5.40;;;;;;;;;;6223971;23;20000;-74
2022/01/31 03:58:16;;;;;;;31.33;3.95;;;;;;;;;;6223038;23;20001;-74
2022/01/31 04:00:42;;;;;;;15.13;2.92;;;;;;;;;;6225243;23;20414;-73
2022/01/31 04:03:09;;;;;;;12.95;2.30;;;;;;;;;;6224616;23;20000;-74
2022/01/31 04:05:37;;;;;;;16.35;2.53;;;;;;;;;;6224210;23;20005;-73
2022/01/31 04:08:03;;;;;;;13.88;2.08;;;;;;;;;;6223386;23;20020;-72
2022/01/31 04:10:29;;;;;;;9.65;1.90;;;;;;;;;;6222707;23;20000;-72
2022/01/31 04:12:55;;;;;;;18.77;1.80;;;;;;;;;;6223420;23;20004;-72
2022/01/31 04:15:21;;;;;;;18.60;2.42;;;;;;;;;;6223425;23;20054;-72
2022/01/31 04:17:47;;;;;;;22.67;3.33;;;;;;;;;;6211147;23;20299;-72
2022/01/31 04:20:15;;;;;;;41.55;4.55;;;;;;;;;;6223813;23;20005;-72
2022/01/31 04:23:17;;;;;;;31.08;4.13;;;;;;;;;;6223281;23;20378;-72
2022/01/31 04:28:30;;;;;;;23.08;3.85;;;;;;;;;;6223054;23;20357;-72
2022/01/31 04:30:59;;;;;;;22.40;4.10;;;;;;;;;;6223072;23;20018;-72
2022/01/31 04:33:26;;;;;;;23.73;2.78;;;;;;;;;;6222669;23;20059;-72
2022/01/31 04:35:53;;;;;;;25.27;3.55;;;;;;;;;;6223701;23;19997;-72
2022/01/31 04:38:19;;;;;;;20.65;4.25;;;;;;;;;;6223883;23;20000;-72
2022/01/31 04:40:45;;;;;;;32.13;4.80;;;;;;;;;;6221842;23;20015;-72
2022/01/31 04:43:11;;;;;;;23.60;3.40;;;;;;;;;;6223306;23;20001;-72
2022/01/31 04:45:37;;;;;;;38.60;4.72;;;;;;;;;;6221567;23;20007;-72
2022/01/31 04:48:03;;;;;;;33.28;4.68;;;;;;;;;;6223363;23;19996;-72
2022/01/31 04:50:29;;;;;;;37.67;4.25;;;;;;;;;;6211568;23;20601;-72
2022/01/31 04:52:56;;;;;;;34.55;4.80;;;;;;;;;;6222956;23;20001;-72
2022/01/31 04:55:22;;;;;;;18.85;2.15;;;;;;;;;;6223443;23;20456;-72
2022/01/31 04:57:48;;;;;;;15.07;1.80;;;;;;;;;;6222148;23;20009;-72
2022/01/31 05:00:14;;;;;;;6.80;1.20;;;;;;;;;;6223357;23;20382;-72
2022/01/31 05:02:40;;;;;;;14.30;1.80;;;;;;;;;;6222399;23;20023;-72
2022/01/31 05:05:06;;;;;;;9.40;2.08;;;;;;;;;;6223047;23;20005;-72
2022/01/31 05:07:33;;;;;;;13.55;2.28;;;;;;;;;;6223419;23;20019;-72
2022/01/31 05:09:59;;;;;;;15.60;2.67;;;;;;;;;;6211727;23;20004;-73
2022/01/31 05:12:26;;;;;;;16.90;1.70;;;;;;;;;;6221361;23;20005;-73
2022/01/31 05:14:53;;;;;;;12.50;2.22;;;;;;;;;;6223623;23;20469;-73
2022/01/31 05:17:19;;;;;;;12.63;1.27;;;;;;;;;;6220826;23;20452;-72
2022/01/31 05:19:45;;;;;;;14.82;1.60;;;;;;;;;;6223144;23;20578;-73
2022/01/31 05:22:11;;;;;;;14.77;2.38;;;;;;;;;;6211922;23;20084;-73
2022/01/31 05:24:37;;;;;;;15.77;1.50;;;;;;;;;;6222324;23;20001;-73
2022/01/31 05:27:03;;;;;;;9.60;1.15;;;;;;;;;;6222376;23;20322;-73
2022/01/31 05:29:29;;;;;;;15.23;1.52;;;;;;;;;;6186120;23;20090;-73
2022/01/31 05:31:55;;;;;;;18.50;3.28;;;;;;;;;;6222533;23;20009;-73
2022/01/31 05:34:24;;;;;;;22.80;2.35;;;;;;;;;;6223015;23;20362;-73
2022/01/31 05:36:54;;;;;;;23.67;1.98;;;;;;;;;;6220607;23;20013;-73
2022/01/31 05:39:21;;;;;;;21.58;2.20;;;;;;;;;;6223093;23;20008;-72
2022/01/31 05:41:47;;;;;;;17.05;2.00;;;;;;;;;;6222252;23;20382;-72
2022/01/31 05:44:13;;;;;;;21.25;1.63;;;;;;;;;;6222390;23;20001;-72
2022/01/31 05:46:39;;;;;;;20.05;2.60;;;;;;;;;;6222638;23;20005;-72
2022/01/31 05:49:05;;;;;;;26.88;3.60;;;;;;;;;;6222342;23;20043;-72
2022/01/31 05:51:31;;;;;;;34.70;2.75;;;;;;;;;;6221427;23;20004;-72
2022/01/31 05:53:57;;;;;;;31.50;3.35;;;;;;;;;;6222536;23;20001;-72
2022/01/31 05:56:23;;;;;;;30.67;2.72;;;;;;;;;;6222593;23;20005;-73
2022/01/31 05:58:50;;;;;;;17.77;3.35;;;;;;;;;;6221953;23;20474;-73
2022/01/31 06:01:16;;;;;;;30.50;3.80;;;;;;;;;;6211111;23;20051;-72
2022/01/31 06:03:42;;;;;;;25.00;3.10;;;;;;;;;;6222332;23;19997;-73
2022/01/31 06:06:09;;;;;;;24.25;3.13;;;;;;;;;;6222614;23;20024;-73
2022/01/31 06:08:35;;;;;;;11.30;2.00;;;;;;;;;;6222372;23;20454;-73
2022/01/31 06:11:01;;;;;;;20.02;2.47;;;;;;;;;;6211194;23;20009;-73
2022/01/31 06:13:32;;;;;;;19.75;2.35;;;;;;;;;;6222880;23;20003;-72
2022/01/31 06:15:58;;;;;;;25.00;2.47;;;;;;;;;;6221855;23;20024;-73
2022/01/31 06:18:24;;;;;;;22.20;2.53;;;;;;;;;;6222725;23;20051;-73
2022/01/31 06:20:50;;;;;;;16.30;2.15;;;;;;;;;;6221798;23;20003;-73
2022/01/31 06:23:17;;;;;;;20.63;3.28;;;;;;;;;;6222095;23;20001;-73
2022/01/31 06:25:44;;;;;;;11.55;1.60;;;;;;;;;;6222966;23;20322;-73
2022/01/31 06:28:10;;;;;;;19.92;2.28;;;;;;;;;;6222312;23;20016;-73
2022/01/31 06:30:36;;;;;;;16.20;2.17;;;;;;;;;;6221232;23;20504;-72
2022/01/31 06:33:02;;;;;;;18.27;2.50;;;;;;;;;;6222563;23;20325;-72
2022/01/31 06:35:29;;;;;;;13.57;1.95;;;;;;;;;;6221292;23;20422;-72
2022/01/31 06:37:55;;;;;;;15.30;2.15;;;;;;;;;;6222771;23;20001;-72
2022/01/31 06:40:21;;;;;;;63.78;3.30;;;;;;;;;;6210999;23;20434;-72
2022/01/31 06:42:47;;;;;;;10.45;2.72;;;;;;;;;;6221835;23;20067;-72
2022/01/31 06:45:14;;;;;;;16.13;2.38;;;;;;;;;;6223016;23;20005;-73
2022/01/31 06:47:40;;;;;;;18.52;2.30;;;;;;;;;;6222460;23;20365;-72
2022/01/31 06:50:07;;;;;;;20.58;2.40;;;;;;;;;;6222386;23;20000;-72
2022/01/31 06:52:36;;;;;;;27.45;3.70;;;;;;;;;;6223125;23;19997;-70
2022/01/31 06:55:05;;;;;;;20.08;2.92;;;;;;;;;;6223949;23;20448;-72
2022/01/31 06:57:34;;;;;;;18.88;2.80;;;;;;;;;;6224292;23;20008;-72
2022/01/31 07:00:02;;;;;;;18.25;2.90;;;;;;;;;;6224216;23;19993;-72
2022/01/31 07:02:28;;;;;;;29.77;4.60;;;;;;;;;;6209977;23;20001;-71
2022/01/31 07:04:54;;;;;;;21.60;4.20;;;;;;;;;;6222993;23;20000;-72
2022/01/31 07:07:20;;;;;;;28.88;4.85;;;;;;;;;;6221941;23;20077;-70
2022/01/31 07:09:46;;;;;;;24.17;4.32;;;;;;;;;;6222578;23;20012;-70
2022/01/31 07:12:15;;;;;;;26.80;3.47;;;;;;;;;;6211840;23;20008;-71
2022/01/31 07:14:41;;;;;;;26.35;5.60;;;;;;;;;;6222869;23;20008;-72
2022/01/31 07:17:07;;;;;;;30.35;3.42;;;;;;;;;;6211672;23;20322;-73
2022/01/31 07:19:36;;;;;;;31.23;3.63;;;;;;;;;;6187611;23;20307;-73
2022/01/31 07:22:06;;;;;;;30.25;4.00;;;;;;;;;;6223864;23;20338;-71
2022/01/31 07:26:58;;;;;;;27.08;3.05;;;;;;;;;;6223101;23;20004;-72
2022/01/31 07:29:24;;;;;;;29.90;4.55;;;;;;;;;;6224031;23;20001;-71
2022/01/31 07:31:50;;;;;;;37.03;4.30;;;;;;;;;;6223390;23;20000;-72
2022/01/31 07:34:20;;;;;;;20.67;3.03;;;;;;;;;;6222788;23;19996;-72
2022/01/31 07:36:46;;;;;;;27.88;4.05;;;;;;;;;;6223255;23;20026;-72
2022/01/31 07:39:13;;;;;;;24.52;4.50;;;;;;;;;;6212055;23;20088;-72
2022/01/31 07:41:39;;;;;;;24.48;3.88;;;;;;;;;;6223979;23;20088;-71
2022/01/31 07:44:05;;;;;;;26.52;3.08;;;;;;;;;;6224544;23;20007;-71
2022/01/31 07:46:31;;;;;;;31.40;3.13;;;;;;;;;;6222137;23;20068;-72
2022/01/31 07:48:57;;;;;;;22.27;3.10;;;;;;;;;;6223079;23;20432;-72
2022/01/31 07:51:23;;;;;;;30.23;3.75;;;;;;;;;;6212194;23;20000;-72
2022/01/31 07:53:49;;;;;;;32.97;4.15;;;;;;;;;;6210881;23;20007;-72
2022/01/31 07:56:17;;;;;;;41.60;4.32;;;;;;;;;;6223887;23;20036;-72
2022/01/31 07:58:43;;;;;;;36.28;5.20;;;;;;;;;;6219928;23;20007;-71
2022/01/31 08:01:09;;;;;;;31.17;4.18;;;;;;;;;;6222726;23;19996;-72
2022/01/31 08:03:36;;;;;;;26.48;3.30;;;;;;;;;;6222179;23;20001;-71
2022/01/31 08:06:02;;;;;;;31.05;5.53;;;;;;;;;;6221664;23;20008;-72
2022/01/31 08:08:29;;;;;;;28.70;4.82;;;;;;;;;;6220932;23;20004;-73
2022/01/31 08:10:59;;;;;;;25.65;4.05;;;;;;;;;;6222771;23;20001;-73
2022/01/31 08:13:25;;;;;;;25.40;4.00;;;;;;;;;;6210277;23;20000;-72
2022/01/31 08:18:27;;;;;;;24.60;2.67;;;;;;;;;;6222748;23;20012;-73
2022/01/31 08:20:53;;;;;;;26.02;3.22;;;;;;;;;;6222378;23;20004;-73
2022/01/31 08:23:20;;;;;;;15.07;3.53;;;;;;;;;;6221987;23;19997;-73
2022/01/31 08:25:48;;;;;;;24.70;2.85;;;;;;;;;;6221601;23;20051;-73
2022/01/31 08:28:15;;;;;;;26.60;3.63;;;;;;;;;;6222422;23;20016;-73
2022/01/31 08:30:50;;;;;;;20.65;5.00;;;;;;;;;;6220004;23;20057;-73
2022/01/31 08:33:34;;;;;;;26.88;4.18;;;;;;;;;;6221650;23;20017;-72
2022/01/31 08:36:01;;;;;;;19.88;3.17;;;;;;;;;;6221780;23;20004;-74
2022/01/31 08:38:27;;;;;;;9.85;1.30;;;;;;;;;;6221452;23;20008;-74
2022/01/31 08:40:54;;;;;;;17.55;1.83;;;;;;;;;;6222328;23;20020;-73
2022/01/31 08:43:20;;;;;;;14.65;2.38;;;;;;;;;;6221821;23;20651;-74
2022/01/31 08:45:47;;;;;;;14.82;2.10;;;;;;;;;;6221564;23;20005;-74
2022/01/31 08:48:13;;;;;;;19.30;3.60;;;;;;;;;;6222599;23;20054;-74
2022/01/31 08:50:39;;;;;;;21.75;2.08;;;;;;;;;;6222354;23;19996;-74
2022/01/31 08:53:05;;;;;;;14.00;1.73;;;;;;;;;;6210123;23;20235;-74
2022/01/31 08:55:31;;;;;;;16.50;2.42;;;;;;;;;;6210714;23;20009;-74
2022/01/31 08:57:58;;;;;;;16.55;2.30;;;;;;;;;;6221090;23;20001;-75
2022/01/31 09:00:34;;;;;;;16.80;1.95;;;;;;;;;;6220907;23;20000;-75
2022/01/31 09:05:51;;;;;;;15.38;2.50;;;;;;;;;;6176102;23;20541;-76
2022/01/31 09:08:17;;;;;;;16.80;2.40;;;;;;;;;;6221512;23;20238;-74
2022/01/31 09:10:44;;;;;;;19.10;2.17;;;;;;;;;;6221938;23;19993;-74
2022/01/31 09:13:12;;;;;;;17.25;2.42;;;;;;;;;;6222372;23;19996;-74
2022/01/31 09:15:39;;;;;;;19.35;2.05;;;;;;;;;;6222008;23;20012;-74
2022/01/31 09:18:06;;;;;;;17.90;1.48;;;;;;;;;;6223545;23;20001;-74
2022/01/31 09:20:32;;;;;;;16.95;1.95;;;;;;;;;;6222656;23;20000;-74
2022/01/31 09:22:58;;;;;;;10.80;1.48;;;;;;;;;;6222678;23;19997;-74
2022/01/31 09:25:27;;;;;;;12.18;1.58;;;;;;;;;;6222505;23;20001;-74
2022/01/31 09:27:53;;;;;;;10.88;1.70;;;;;;;;;;6220883;23;20111;-74
2022/01/31 09:30:22;;;;;;;11.05;1.65;;;;;;;;;;6222405;23;20385;-74
2022/01/31 09:32:48;;;;;;;14.90;1.40;;;;;;;;;;6221599;23;20004;-74
2022/01/31 09:35:14;;;;;;;21.58;1.55;;;;;;;;;;6222156;23;19996;-74
2022/01/31 09:37:40;;;;;;;9.27;1.25;;;;;;;;;;6221972;23;20024;-74
2022/01/31 09:40:07;;;;;;;13.68;1.48;;;;;;;;;;6221703;23;20155;-74
2022/01/31 09:42:42;;;;;;;10.55;1.40;;;;;;;;;;6222051;23;20035;-74
2022/01/31 09:45:16;;;;;;;9.73;2.45;;;;;;;;;;6210732;23;20381;-74
2022/01/31 09:50:25;;;;;;;13.60;2.30;;;;;;;;;;6221792;23;20318;-74
2022/01/31 09:52:51;;;;;;;13.38;1.92;;;;;;;;;;6222059;23;19997;-74
2022/01/31 09:55:17;;;;;;;15.57;1.55;;;;;;;;;;6221311;23;20008;-74
2022/01/31 09:57:43;;;;;;;9.02;1.73;;;;;;;;;;6221564;23;20003;-74
2022/01/31 10:00:09;;;;;;;11.65;1.58;;;;;;;;;;6221077;23;20027;-74
2022/01/31 10:02:35;;;;;;;10.05;1.17;;;;;;;;;;6222435;23;20001;-74
2022/01/31 10:05:02;;;;;;;10.60;1.70;;;;;;;;;;6222097;23;19997;-74
2022/01/31 10:07:43;;;;;;;12.48;2.05;;;;;;;;;;6221880;23;20445;-74
2022/01/31 10:10:22;;;;;;;9.63;2.08;;;;;;;;;;6222184;23;20035;-74
2022/01/31 10:18:06;;;;;;;16.92;1.80;;;;;;;;;;6221562;23;20472;-74
2022/01/31 10:20:33;;;;;;;18.98;3.38;;;;;;;;;;6220518;23;20009;-74
2022/01/31 10:23:09;;;;;;;14.50;2.40;;;;;;;;;;6221327;23;20008;-74
2022/01/31 10:25:36;;;;;;;20.30;2.25;;;;;;;;;;6221310;23;20031;-74
2022/01/31 10:28:09;;;;;;;13.65;2.20;;;;;;;;;;6211172;23;20017;-74
2022/01/31 10:30:35;;;;;;;23.63;3.90;;;;;;;;;;6223027;23;20086;-73
2022/01/31 10:33:01;;;;;;;26.08;4.18;;;;;;;;;;6223493;23;20016;-74
2022/01/31 10:35:31;;;;;;;22.80;2.92;;;;;;;;;;6211693;23;20015;-74
2022/01/31 10:38:06;;;;;;;19.73;2.58;;;;;;;;;;6212432;23;20008;-74
2022/01/31 10:53:55;;;;;;;18.52;2.20;;;;;;;;;;6221104;23;20031;-75
2022/01/31 10:56:22;;;;;;;15.77;1.58;;;;;;;;;;6213575;23;20016;-75
2022/01/31 10:58:57;;;;;;;13.80;1.83;;;;;;;;;;6222124;23;20000;-75
2022/01/31 11:01:23;;;;;;;12.32;2.65;;;;;;;;;;6224438;23;20011;-75
2022/01/31 11:03:49;;;;;;;6.20;1.17;;;;;;;;;;6224130;23;20492;-75
2022/01/31 11:06:15;;;;;;;7.20;1.30;;;;;;;;;;6223512;23;20004;-75
2022/01/31 11:08:42;;;;;;;10.75;1.90;;;;;;;;;;6224592;23;19997;-75
2022/01/31 11:11:09;;;;;;;8.18;1.65;;;;;;;;;;6228774;23;20486;-76
2022/01/31 11:13:36;;;;;;;9.73;0.82;;;;;;;;;;6214278;23;20008;-75
2022/01/31 11:16:04;;;;;;;4.82;0.73;;;;;;;;;;6223474;23;20023;-75
2022/01/31 11:18:31;;;;;;;7.82;1.38;;;;;;;;;;6226408;23;20051;-75
2022/01/31 11:21:07;;;;;;;11.77;2.47;;;;;;;;;;6223789;23;19997;-75
2022/01/31 11:23:38;;;;;;;8.13;1.35;;;;;;;;;;6222976;23;19993;-75
2022/01/31 11:26:05;;;;;;;6.90;1.20;;;;;;;;;;6223364;23;19997;-75
2022/01/31 11:28:34;;;;;;;10.77;1.55;;;;;;;;;;6224199;23;20005;-75
2022/01/31 11:31:01;;;;;;;16.55;2.67;;;;;;;;;;6223693;23;20004;-75
2022/01/31 11:33:27;;;;;;;13.75;2.30;;;;;;;;;;6212594;23;20005;-75
2022/01/31 11:35:54;;;;;;;11.23;2.30;;;;;;;;;;6223947;23;20032;-75
2022/01/31 11:38:21;;;;;;;9.27;1.77;;;;;;;;;;6222773;23;20414;-75
2022/01/31 11:40:47;;;;;;;13.48;2.70;;;;;;;;;;6222716;23;20000;-75
2022/01/31 11:43:13;;;;;;;17.60;3.85;;;;;;;;;;6223984;23;20080;-75
2022/01/31 11:45:41;;;;;;;16.58;2.55;;;;;;;;;;6223896;23;20000;-75
2022/01/31 11:48:12;;;;;;;25.05;3.00;;;;;;;;;;6224197;23;20003;-75
2022/01/31 11:50:46;;;;;;;17.58;3.35;;;;;;;;;;6212176;23;20303;-75
2022/01/31 11:53:13;;;;;;;18.92;3.13;;;;;;;;;;6223187;23;20076;-74
2022/01/31 11:55:39;;;;;;;17.85;3.03;;;;;;;;;;6221078;23;20434;-74
2022/01/31 11:58:07;;;;;;;16.02;2.67;;;;;;;;;;6217199;23;20083;-74
2022/01/31 12:00:35;;;;;;;18.23;2.53;;;;;;;;;;6221215;23;20001;-74
2022/01/31 12:03:03;;;;;;;15.32;2.60;;;;;;;;;;6223327;23;19999;-76
2022/01/31 12:05:30;;;;;;;21.38;2.42;;;;;;;;;;6210437;23;20011;-75
2022/01/31 12:08:07;;;;;;;17.00;2.95;;;;;;;;;;6222645;23;20322;-75
2022/01/31 12:10:37;;;;;;;16.50;1.95;;;;;;;;;;6222727;23;20000;-74
2022/01/31 12:13:26;;;;;;;8.23;1.20;;;;;;;;;;6222332;23;20075;-74
2022/01/31 12:16:05;;;;;;;15.65;3.53;;;;;;;;;;6195042;23;20355;-75
2022/01/31 12:23:53;;;;;;;16.80;1.95;;;;;;;;;;6222551;23;20031;-74
2022/01/31 12:26:30;;;;;;;18.67;3.08;;;;;;;;;;6223171;23;20298;-74
2022/01/31 12:28:57;;;;;;;15.25;2.42;;;;;;;;;;6222415;23;20008;-73
2022/01/31 12:31:24;;;;;;;21.77;2.90;;;;;;;;;;6222316;23;19996;-74
2022/01/31 12:33:51;;;;;;;22.48;2.60;;;;;;;;;;6222593;23;19997;-74
2022/01/31 12:36:32;;;;;;;22.90;2.17;;;;;;;;;;6221111;23;20008;-74
2022/01/31 12:38:59;;;;;;;15.63;2.25;;;;;;;;;;6223015;23;20001;-74
2022/01/31 12:41:32;;;;;;;23.08;4.05;;;;;;;;;;6222394;23;20084;-74
2022/01/31 12:44:17;;;;;;;13.05;1.77;;;;;;;;;;6222112;23;20095;-74
2022/01/31 12:46:50;;;;;;;22.27;3.08;;;;;;;;;;6210189;23;20001;-73
2022/01/31 12:49:16;;;;;;;27.23;2.72;;;;;;;;;;6185884;23;20009;-74
2022/01/31 12:51:56;;;;;;;15.40;2.33;;;;;;;;;;6222565;23;19997;-74
2022/01/31 12:54:22;;;;;;;26.58;3.08;;;;;;;;;;6222652;23;20295;-74
2022/01/31 12:56:48;;;;;;;19.95;2.80;;;;;;;;;;6210622;23;20009;-74
2022/01/31 12:59:16;;;;;;;22.23;3.90;;;;;;;;;;6211248;23;20008;-74
2022/01/31 13:01:46;;;;;;;22.35;4.43;;;;;;;;;;6222151;23;20062;-74
2022/01/31 13:04:15;;;;;;;27.38;4.25;;;;;;;;;;6222160;23;19997;-74
2022/01/31 13:06:46;;;;;;;22.73;3.75;;;;;;;;;;6221956;23;20008;-74
2022/01/31 13:09:28;;;;;;;28.88;3.50;;;;;;;;;;6222676;23;20003;-74
2022/01/31 13:11:59;;;;;;;25.02;5.25;;;;;;;;;;6222393;23;20442;-74
2022/01/31 13:14:26;;;;;;;29.27;4.85;;;;;;;;;;6222782;23;19996;-74
2022/01/31 13:17:06;;;;;;;29.92;4.10;;;;;;;;;;6221548;23;20084;-74
2022/01/31 13:19:35;;;;;;;32.70;4.43;;;;;;;;;;6221801;23;20001;-72
2022/01/31 13:22:03;;;;;;;30.20;4.35;;;;;;;;;;6211248;23;20043;-74
2022/01/31 13:24:50;;;;;;;32.95;5.05;;;;;;;;;;6210303;23;20015;-74
2022/01/31 13:27:17;;;;;;;29.38;4.97;;;;;;;;;;6221642;23;20012;-74
2022/01/31 13:29:47;;;;;;;28.05;5.82;;;;;;;;;;6210463;23;20008;-74
2022/01/31 13:32:14;;;;;;;28.88;5.25;;;;;;;;;;6220057;23;20083;-74
2022/01/31 13:34:41;;;;;;;38.22;6.22;;;;;;;;;;6222255;23;20366;-74
2022/01/31 13:37:39;;;;;;;35.17;6.05;;;;;;;;;;6221692;23;20092;-74
2022/01/31 13:40:06;;;;;;;35.33;5.15;;;;;;;;;;6154773;23;20009;-74
2022/01/31 13:42:37;;;;;;;27.17;4.22;;;;;;;;;;6210687;23;20418;-74
2022/01/31 13:45:05;;;;;;;38.33;5.03;;;;;;;;;;6222158;23;20008;-74
2022/01/31 13:47:57;;;;;;;31.08;4.05;;;;;;;;;;6221566;23;20231;-74
2022/01/31 13:50:39;;;;;;;36.35;4.85;;;;;;;;;;6222612;23;19997;-74
2022/01/31 13:53:07;;;;;;;37.67;3.97;;;;;;;;;;6222639;23;20000;-74
2022/01/31 13:55:34;;;;;;;38.00;6.30;;;;;;;;;;6221339;23;20000;-74
2022/01/31 13:58:01;;;;;;;33.47;5.38;;;;;;;;;;6222517;23;20422;-74
2022/01/31 14:00:27;;;;;;;25.38;3.38;;;;;;;;;;6209853;23;20016;-74
2022/01/31 14:02:59;;;;;;;26.15;4.53;;;;;;;;;;6221847;23;20062;-74
2022/01/31 14:05:25;;;;;;;25.80;4.85;;;;;;;;;;6222249;23;20099;-74
2022/01/31 14:08:01;;;;;;;23.13;4.47;;;;;;;;;;6209702;23;20001;-74
2022/01/31 14:10:31;;;;;;;26.40;3.42;;;;;;;;;;6222207;23;19997;-74
2022/01/31 14:13:01;;;;;;;31.10;3.97;;;;;;;;;;6221929;23;20005;-74
2022/01/31 14:15:28;;;;;;;23.75;3.67;;;;;;;;;;6221674;23;20009;-73
2022/01/31 14:17:54;;;;;;;20.55;3.53;;;;;;;;;;6222297;23;20107;-73
2022/01/31 14:20:22;;;;;;;27.90;3.95;;;;;;;;;;6221694;23;20445;-73
2022/01/31 14:22:57;;;;;;;18.85;2.85;;;;;;;;;;6222320;23;20001;-74
2022/01/31 14:25:23;;;;;;;15.40;2.10;;;;;;;;;;6222433;23;20033;-74
2022/01/31 14:27:53;;;;;;;14.73;3.00;;;;;;;;;;6221587;23;20016;-74
2022/01/31 14:30:20;;;;;;;13.40;2.08;;;;;;;;;;6221647;23;20000;-73
2022/01/31 14:32:56;;;;;;;10.32;1.30;;;;;;;;;;6221765;23;20001;-73
2022/01/31 14:35:23;;;;;;;18.05;2.03;;;;;;;;;;6209559;23;20138;-73
2022/01/31 14:37:55;;;;;;;10.18;1.73;;;;;;;;;;6222224;23;20055;-73
2022/01/31 14:43:17;;;;;;;12.90;1.50;;;;;;;;;;6221581;23;20015;-73
2022/01/31 14:48:32;;;;;;;12.20;1.67;;;;;;;;;;6221730;23;20083;-73
2022/01/31 14:50:58;;;;;;;15.25;2.92;;;;;;;;;;6220026;23;20004;-73
2022/01/31 14:53:24;;;;;;;12.13;2.00;;;;;;;;;;6221959;23;20008;-73
2022/01/31 14:55:51;;;;;;;15.32;2.95;;;;;;;;;;6210900;23;20011;-73
2022/01/31 14:58:19;;;;;;;13.98;2.17;;;;;;;;;;6222572;23;20339;-74
2022/01/31 15:00:45;;;;;;;7.90;1.67;;;;;;;;;;6210978;23;20430;-73
2022/01/31 15:03:11;;;;;;;10.32;1.30;;;;;;;;;;6221808;23;20005;-73
2022/01/31 15:05:37;;;;;;;14.25;1.90;;;;;;;;;;6221011;23;19996;-73
2022/01/31 15:08:04;;;;;;;12.40;1.60;;;;;;;;;;6210235;23;20004;-73
2022/01/31 15:10:32;;;;;;;10.52;1.52;;;;;;;;;;6221119;23;20318;-74
2022/01/31 15:13:00;;;;;;;16.35;2.58;;;;;;;;;;6222544;23;20000;-73
2022/01/31 15:15:26;;;;;;;13.02;2.03;;;;;;;;;;6223335;23;20009;-73
2022/01/31 15:17:54;;;;;;;11.60;2.33;;;;;;;;;;6211726;23;20001;-73